Sunday, July 22, 2018, 8:57 AM EDT
Back to Local

K40B, Clayton Lake

Location: Ashland, ME, United States Lat: 46.617
Local Time: 8:57 AM EDT (12:57 GMT) Lon: -69.533
Time Zone: US/Eastern Elev: 1030 ft

Show me the last for .
Show Decoded

2018-07-22 08:16 METAR K40B 221216Z AUTO 00000KT 19/13 A3020 RMK AO1 SLP228 T01920128 10191 20086
                 52002 P0000 60000 70000 =
2018-07-22 07:16 METAR K40B 221116Z AUTO 00000KT 15/12 A3020 RMK AO1 SLP226 T01530121 50004 =
2018-07-22 06:16 METAR K40B 221016Z AUTO 00000KT 11/10 A3021 RMK AO1 SLP227 T01090103 52010 =
2018-07-22 05:16 METAR K40B 220916Z AUTO 00000KT 09/09 A3020 RMK AO1 SLP222 T00880088 52008 =
2018-07-22 04:16 METAR K40B 220816Z AUTO 00000KT 10/10 A3018 RMK AO1 SLP216 T01000100 52004 =
2018-07-22 03:16 METAR K40B 220716Z AUTO 00000KT 11/11 A3018 RMK AO1 SLP210 T01070106 52004 =
2018-07-22 02:16 METAR K40B 220616Z AUTO 00000KT 11/11 A3017 RMK AO1 SLP208 T01120110 10222 20110
                 52005 =
2018-07-22 01:16 METAR K40B 220516Z AUTO 00000KT 12/12 A3017 RMK AO1 SLP206 T01250118 403010114
                 52005 =
2018-07-22 00:16 METAR K40B 220416Z AUTO 00000KT 14/11 A3016 RMK AO1 SLP201 T01360110 52004 =
2018-07-21 23:16 METAR K40B 220316Z AUTO 00000KT 16/12 A3016 RMK AO1 SLP198 T01580120 51009 =
2018-07-21 22:16 METAR K40B 220216Z AUTO 00000KT 18/12 A3016 RMK AO1 SLP197 T01750121 51012 =
2018-07-21 21:16 METAR K40B 220116Z AUTO VRB03KT 20/13 A3015 RMK AO1 SLP195 T02010134 53013 =
2018-07-21 20:16 METAR K40B 220016Z AUTO 00000KT 22/14 A3013 RMK AO1 SLP187 T02210144 10301 20222
                 53004 =
2018-07-21 19:16 METAR K40B 212316Z AUTO VRB04KT 27/09 A3012 RMK AO1 SLP184 T02720094 55004 =
2018-07-21 18:16 METAR K40B 212216Z AUTO VRB05KT 29/07 A3011 RMK AO1 SLP182 T02870074 57008 =
2018-07-21 17:16 METAR K40B 212116Z AUTO VRB05KT 29/06 A3012 RMK AO1 SLP187 T02910064 57008 =
2018-07-21 16:16 METAR K40B 212016Z AUTO VRB05KT 29/04 A3013 RMK AO1 SLP193 T02930038 56006 =
2018-07-21 15:16 METAR K40B 211916Z AUTO VRB06KT 29/07 A3014 RMK AO1 SLP196 T02910072 57009 =
2018-07-21 14:16 METAR K40B 211816Z AUTO VRB03G13KT 29/09 A3014 RMK AO1 SLP200 T02850087 10296
                 20209 57010 =
2018-07-21 13:16 METAR K40B 211716Z AUTO 08006G12KT 28/11 A3015 RMK AO1 SLP204 T02810110 57010 =
2018-07-21 12:18 METAR K40B 211618Z AUTO VRB05KT 27/11 A3016 RMK AO1 SLP208 T02730108 57008 =
2018-07-21 11:16 METAR K40B 211516Z AUTO VRB02KT 27/13 A3017 RMK AO1 SLP214 T02730132 57007 =
2018-07-21 10:16 METAR K40B 211416Z AUTO VRB04KT 25/13 A3018 RMK AO1 SLP217 T02540131 57006 =
2018-07-21 09:16 METAR K40B 211316Z AUTO 00000KT 25/13 A3019 RMK AO1 SLP220 T02460128 50000 =

Support USWX by starting your Amazon purchase here.